Clarinda, Iowa
Current Conditions -  °F | °C
As of 10:35 AM on Sunday 21 Dec 2014 (Local Time) from KICL Reporting Station
Overcast Overcast  
Wind Chill: 30°   Ceiling: 900
Heat Index: 39°   Visibility: 7mi
Dew Point: 37°   Wind: 17mph
Humidity: 93%   Direction: 180°S
Pressure: 29.93"   Gusts: NA
Location:  40.74°N, 95.04°W
Report Text: KICL 211635Z AUTO 18015KT 7SM OVC009 04/03 A2993 RMK AO2
Loading
Personal Weather Stations






























Interactive Weather Map New forecast layout! Learn more

10-Day Weather Forecast

Advertisements
Track Severe Weather on mobile